»·PEaware :: SWA2423 KSTL-KBWI

SWA2423 :: KSTL-KBWI

FLIGHT INFORMATION

Flight Status: Arrived
Operator:
Southwest Airlines
More flights by this operator :: More flights under this callsign
Pilot: Chris C. (17882)
Aircraft: BOEING 737-800
(B738)
More flights by this aircraft type
Origin: KSTL Lambert-St Louis Intl
United States
Destination: KBWI Baltimore-Washington Intl
United States
More flights between these airports :: More routes between these airports
Route: JHART6 CREEP APE NUSMM ANTHM3
File this flight plan on PilotEdge
Remarks: RMK / SIMBRIEF
Altitude:
(Current/Filed)
35,000ft
Speed:
(Current/Filed)
444kts
Departed: 25-Mar-20 10:46 AM
Arrived: 25-Mar-20 12:21 PM
Distance/Time
Traveled:
639nm/1:35
Distance/Time
To Go:
Arrived

Flight Plot

Page will automatically refresh every two minutes.


Map Options




Map Legend


Flown Route
Filed Route
Departure Airport
Arrival Airport
Navaid (VOR, NDB)
Fix

Horizontal Profiles

Position Reports

Time Latitude Longitude Heading Altitude Ground
Speed
25-Mar-20 10:29 38.737065 -90.353956 219 559ft 0kts
25-Mar-20 10:30 38.737065 -90.353956 219 559ft 0kts
25-Mar-20 10:31 38.737065 -90.353956 219 559ft 0kts
25-Mar-20 10:32 38.737065 -90.353956 219 559ft 0kts
25-Mar-20 10:33 38.737065 -90.353956 219 559ft 0kts
25-Mar-20 10:34 38.737065 -90.353956 219 559ft 0kts
25-Mar-20 10:35 38.737249 -90.353746 235 559ft 2kts
25-Mar-20 10:36 38.737281 -90.353026 300 560ft 2kts
25-Mar-20 10:37 38.737148 -90.352768 300 561ft 0kts
25-Mar-20 10:38 38.737148 -90.352768 300 561ft 0kts
25-Mar-20 10:39 38.738932 -90.352324 33 556ft 10kts
25-Mar-20 10:40 38.741707 -90.357370 303 549ft 22kts
25-Mar-20 10:41 38.744816 -90.363587 301 549ft 19kts
25-Mar-20 10:42 38.747663 -90.369358 301 547ft 23kts
25-Mar-20 10:43 38.751021 -90.376257 300 544ft 21kts
25-Mar-20 10:44 38.753629 -90.379263 35 554ft 8kts
25-Mar-20 10:45 38.741708 -90.354314 122 922ft 171kts
25-Mar-20 10:46 38.729198 -90.292430 97 3378ft 227kts
25-Mar-20 10:47 38.727118 -90.199579 89 6523ft 280kts
25-Mar-20 10:48 38.736565 -90.097319 82 10060ft 299kts
25-Mar-20 10:49 38.747854 -89.981938 81 12616ft 349kts
25-Mar-20 10:50 38.760393 -89.852315 80 15493ft 382kts
25-Mar-20 10:51 38.773734 -89.712723 78 18298ft 408kts
25-Mar-20 10:52 38.787788 -89.563724 77 20889ft 434kts
25-Mar-20 10:53 38.805681 -89.406813 73 23283ft 457kts
25-Mar-20 10:54 38.826934 -89.242028 74 25474ft 480kts
25-Mar-20 10:55 38.848623 -89.069374 73 27480ft 501kts
25-Mar-20 10:56 38.871050 -88.888566 71 29267ft 524kts
25-Mar-20 10:57 38.894170 -88.700054 70 30995ft 544kts
25-Mar-20 10:58 38.917669 -88.506551 67 33144ft 544kts
25-Mar-20 10:59 38.963200 -88.329535 57 34754ft 529kts
25-Mar-20 11:00 39.013394 -88.150523 58 35172ft 534kts
25-Mar-20 11:01 39.063464 -87.970523 58 35105ft 536kts
25-Mar-20 11:02 39.113162 -87.790538 58 35139ft 535kts
25-Mar-20 11:03 39.162246 -87.610108 58 35144ft 534kts
25-Mar-20 11:04 39.211516 -87.429290 58 35131ft 535kts
25-Mar-20 11:05 39.260300 -87.249069 59 35103ft 535kts
25-Mar-20 11:06 39.309125 -87.067223 60 35110ft 536kts
25-Mar-20 11:07 39.356704 -86.888568 61 35097ft 518kts
25-Mar-20 11:08 39.403173 -86.713193 61 35103ft 517kts
25-Mar-20 11:09 39.449184 -86.535855 61 35099ft 520kts
25-Mar-20 11:10 39.495484 -86.358542 61 35105ft 521kts
25-Mar-20 11:12 39.541117 -86.182570 61 35094ft 520kts
25-Mar-20 11:13 39.586552 -86.005944 61 35093ft 521kts
25-Mar-20 11:14 39.632025 -85.827590 63 35093ft 520kts
25-Mar-20 11:15 39.668059 -85.643396 63 35093ft 536kts
25-Mar-20 11:16 39.705154 -85.453955 63 35093ft 537kts
25-Mar-20 11:17 39.741455 -85.266778 64 35070ft 537kts
25-Mar-20 11:18 39.777592 -85.078086 65 35061ft 531kts
25-Mar-20 11:19 39.812667 -84.893578 66 35073ft 521kts
25-Mar-20 11:20 39.847177 -84.710216 66 35069ft 522kts
25-Mar-20 11:21 39.881344 -84.526917 66 35075ft 523kts
25-Mar-20 11:22 39.915169 -84.343754 67 35077ft 523kts
25-Mar-20 11:23 39.942518 -84.155488 70 35059ft 528kts
25-Mar-20 11:24 39.968816 -83.967699 70 35058ft 527kts
25-Mar-20 11:25 39.994841 -83.779204 70 35053ft 528kts
25-Mar-20 11:26 40.020637 -83.590026 70 35044ft 529kts
25-Mar-20 11:27 40.046072 -83.401017 70 35047ft 529kts
25-Mar-20 11:28 40.071215 -83.212490 71 35034ft 530kts
25-Mar-20 11:29 40.096045 -83.023144 71 35027ft 531kts
25-Mar-20 11:30 40.120167 -82.836551 72 35033ft 516kts
25-Mar-20 11:31 40.143583 -82.653788 73 35038ft 514kts
25-Mar-20 11:31 40.145862 -82.495880 89 35042ft 529kts
25-Mar-20 11:33 40.132386 -82.274564 89 35030ft 528kts
25-Mar-20 11:33 40.122715 -82.117010 90 35030ft 528kts
25-Mar-20 11:35 40.108707 -81.895422 90 35032ft 529kts
25-Mar-20 11:35 40.098457 -81.737410 90 35038ft 528kts
25-Mar-20 11:36 40.085834 -81.547205 90 35047ft 528kts
25-Mar-20 11:37 40.072932 -81.357557 90 35051ft 529kts
25-Mar-20 11:38 40.059899 -81.169416 90 35037ft 529kts
25-Mar-20 11:39 40.046550 -80.982412 91 35030ft 522kts
25-Mar-20 11:40 40.029931 -80.798056 102 35035ft 513kts
25-Mar-20 11:41 39.989898 -80.618536 104 35026ft 518kts
25-Mar-20 11:42 39.949950 -80.438290 104 35048ft 517kts
25-Mar-20 11:43 39.910176 -80.260233 105 35039ft 517kts
25-Mar-20 11:44 39.870085 -80.082419 104 35018ft 517kts
25-Mar-20 11:45 39.833878 -79.904647 102 35017ft 516kts
25-Mar-20 11:46 39.799269 -79.727050 102 34917ft 505kts
25-Mar-20 11:47 39.764099 -79.551223 104 33932ft 505kts
25-Mar-20 11:48 39.724793 -79.377011 103 32975ft 504kts
25-Mar-20 11:49 39.689792 -79.220110 104 32060ft 503kts
25-Mar-20 11:50 39.650408 -79.044526 105 31010ft 482kts
25-Mar-20 11:51 39.614385 -78.879038 105 29989ft 462kts
25-Mar-20 11:52 39.579415 -78.719680 105 29002ft 458kts
25-Mar-20 11:53 39.545110 -78.563631 105 28018ft 448kts
25-Mar-20 11:54 39.512160 -78.409076 104 27037ft 441kts
25-Mar-20 11:55 39.479325 -78.262795 106 26067ft 432kts
25-Mar-20 11:56 39.451129 -78.114521 91 25071ft 423kts
25-Mar-20 11:57 39.450991 -77.967069 88 24199ft 417kts
25-Mar-20 11:58 39.450777 -77.821673 88 22999ft 387kts
25-Mar-20 11:59 39.450231 -77.688359 89 21128ft 371kts
25-Mar-20 12:00 39.448813 -77.555486 89 18741ft 367kts
25-Mar-20 12:01 39.447361 -77.422707 89 15848ft 372kts
25-Mar-20 12:02 39.449297 -77.289335 85 13111ft 357kts
25-Mar-20 12:03 39.454112 -77.173246 86 12314ft 304kts
25-Mar-20 12:04 39.458440 -77.065385 85 10339ft 303kts
25-Mar-20 12:05 39.462623 -76.951958 90 7530ft 317kts
25-Mar-20 12:06 39.421703 -76.866786 154 6558ft 275kts
25-Mar-20 12:07 39.350125 -76.841508 173 5538ft 265kts
25-Mar-20 12:08 39.284257 -76.874896 229 4014ft 246kts
25-Mar-20 12:09 39.258384 -76.939717 267 4012ft 189kts
25-Mar-20 12:10 39.258596 -76.990366 274 4009ft 176kts
25-Mar-20 12:11 39.261094 -77.053691 257 3995ft 178kts
25-Mar-20 12:12 39.225707 -77.057913 101 4036ft 180kts
25-Mar-20 12:13 39.215891 -76.994715 107 4010ft 181kts
25-Mar-20 12:14 39.186270 -76.942902 104 3970ft 179kts
25-Mar-20 12:15 39.185264 -76.882639 89 3137ft 156kts
25-Mar-20 12:16 39.182621 -76.829030 90 2334ft 149kts
25-Mar-20 12:17 39.179671 -76.776248 90 1524ft 146kts
25-Mar-20 12:18 39.176840 -76.726262 90 766ft 142kts
25-Mar-20 12:19 39.174066 -76.678594 91 142ft 125kts
25-Mar-20 12:20 39.173251 -76.660850 85 140ft 29kts
25-Mar-20 12:21 39.174333 -76.662555 277 144ft 22kts
25-Mar-20 12:22 39.175123 -76.668651 309 148ft 14kts
25-Mar-20 12:23 39.176762 -76.670459 85 147ft 7kts
25-Mar-20 12:24 39.176775 -76.670207 86 148ft 0kts
25-Mar-20 12:25 39.176775 -76.670207 86 148ft 0kts
25-Mar-20 12:26 39.176775 -76.670207 86 148ft 0kts
25-Mar-20 12:27 39.176775 -76.670207 86 148ft 0kts
25-Mar-20 12:28 39.176775 -76.670207 86 148ft 0kts
25-Mar-20 12:29 39.176775 -76.670207 86 148ft 0kts
25-Mar-20 12:30 39.176775 -76.670207 86 148ft 0kts
25-Mar-20 12:31 39.176775 -76.670207 86 148ft 0kts
25-Mar-20 12:32 39.176775 -76.670207 86 148ft 0kts
25-Mar-20 12:33 39.176775 -76.670207 86 148ft 0kts
25-Mar-20 12:34 39.176775 -76.670207 86 148ft 0kts

Navigation Log

Ident Type
Flight plan parsing failed, navigation log unavailable